| Date | Time | Temp. (oF) | Dew Point (oF) | Rel. Hum. (%) | Press. (in.) | Wind Dir. | Wind Speed (mph) | Hourly Rainfall (in.) |
|
|---|---|---|---|---|---|---|---|---|---|
| 1 | 07/25 | 00:00 | 74 | 72 | 96 | 29.99 | SE | 5 | 0.00 |
| 2 | 07/24 | 23:00 | 75 | 73 | 94 | 30.00 | SSE | 2 | 0.00 |
| 3 | 07/24 | 22:00 | 76 | 73 | 92 | 29.99 | SE | 4 | 0.00 |
| 4 | 07/24 | 21:00 | 76 | 73 | 91 | 30.00 | SSW | 4 | 0.00 |
| 5 | 07/24 | 20:00 | 77 | 73 | 90 | 29.99 | ESE | 5 | 0.00 |
| 6 | 07/24 | 19:00 | 77 | 74 | 91 | 30.00 | ESE | 4 | 0.00 |
| 7 | 07/24 | 18:00 | 77 | 74 | 92 | 30.01 | SE | 4 | 0.00 |
| 8 | 07/24 | 17:00 | 77 | 74 | 93 | 30.02 | S | 6 | 0.01 |
| 9 | 07/24 | 16:00 | 77 | 76 | 99 | 30.02 | SSE | 2 | 0.29 |
| 10 | 07/24 | 15:00 | 77 | 75 | 96 | 30.03 | E | 5 | 0.01 |
| 11 | 07/24 | 14:00 | 74 | 73 | 99 | 30.06 | E | 4 | 0.03 |
| 12 | 07/24 | 13:00 | 73 | 70 | 93 | 30.07 | SE | 7 | 0.19 |
| 13 | 07/24 | 12:00 | 79 | 75 | 89 | 30.07 | ESE | 12 | 0.02 |
| 14 | 07/24 | 11:00 | 78 | 75 | 93 | 30.08 | SSE | 5 | 0.00 |
| 15 | 07/24 | 10:00 | 76 | 74 | 95 | 30.09 | SSW | 5 | 0.01 |
| 16 | 07/24 | 09:00 | 74 | 73 | 98 | 30.09 | S | 2 | 0.01 |
| 17 | 07/24 | 08:00 | 74 | 73 | 98 | 30.08 | ESE | 1 | 0.04 |
| 18 | 07/24 | 07:00 | 74 | 73 | 98 | 30.07 | SE | 4 | 0.02 |
| 19 | 07/24 | 06:00 | 75 | 74 | 98 | 30.07 | ESE | 5 | 0.02 |
| 20 | 07/24 | 05:00 | 75 | 74 | 97 | 30.04 | S | 4 | 0.09 |
| 21 | 07/24 | 04:00 | 76 | 75 | 97 | 30.04 | E | 4 | 0.03 |
| 22 | 07/24 | 03:00 | 76 | 74 | 95 | 30.05 | E | 5 | 0.00 |
| 23 | 07/24 | 02:00 | 76 | 74 | 95 | 30.05 | S | 6 | 0.00 |
| 24 | 07/24 | 01:00 | 76 | 74 | 96 | 30.05 | ENE | 5 | 0.00 |